ETOU/WIE METAR and TAF weather

Enter ICAO airport designator
Station Type Date Time Source
ETOU METAR 2019/06/24 22:56 UTC NOAA

ETOU 242256Z AUTO 09005KT 9999 CLR 22/15 A3009 RMK AO2 SLP184 T02240152 403130201 $


Station Type Date Time Source
ETOU Decoded METAR 2019/06/24 22:56 UTC NOAA

Wiesbaden, Germany (ETOU) 50-03N 008-20E
Jun 24, 2019 - 06:56 PM EDT / 2019.06.24 2256 UTC
Wind: from the E (090 degrees) at 6 MPH (5 KT):0
Visibility: greater than 7 mile(s):0
Sky conditions: clear
Temperature: 72.3 F (22.4 C)
Dew Point: 59.4 F (15.2 C)
Relative Humidity: 63%
Pressure (altimeter): 30.09 in. Hg (1018 hPa)
ob: ETOU 242256Z AUTO 09005KT 9999 CLR 22/15 A3009 RMK AO2 SLP184 T02240152 403130201
cycle: 23

Station Type Date Time Source
ETOU TAF 2019/06/24 19:18 UTC NOAA

TAF TAF ETOU 241909Z 2419/2601 10009KT 9999 SKC QNH3006INS
TEMPO 2508/2512 14010G15KT
BECMG 2516/2517 VRB06KT 9999 SKC QNH3011INS TX33/2515Z TN18/2502Z

Example: see airport list